createdAt,value
2023-05-02T00:01:20.335Z,101884.13
2023-05-02T00:03:47.650Z,101886.59
2023-05-02T00:06:14.794Z,101892.47
2023-05-02T00:08:41.779Z,101882.81
2023-05-02T00:11:08.615Z,101894.94
2023-05-02T00:13:35.453Z,101891.22
2023-05-02T00:16:02.271Z,101893.94
2023-05-02T00:18:29.106Z,101895.31
2023-05-02T00:20:56.756Z,101895.25
2023-05-02T00:23:24.218Z,101898.38
2023-05-02T00:25:51.162Z,101902.88
2023-05-02T00:28:18.798Z,101899.16
2023-05-02T00:30:46.951Z,101899.75
2023-05-02T00:33:16.068Z,101905.72
2023-05-02T00:35:42.956Z,101904.34
2023-05-02T00:38:09.817Z,101907.38
2023-05-02T00:40:48.004Z,101914.91
2023-05-02T00:43:16.002Z,101921.75
2023-05-02T00:45:44.766Z,101910.47
2023-05-02T00:48:12.668Z,101919.41
2023-05-02T00:50:42.094Z,101913.53
2023-05-02T00:53:10.438Z,101917.81
2023-05-02T00:55:37.573Z,101918.63
2023-05-02T00:58:22.335Z,101933.75
2023-05-02T01:00:55.191Z,101936.50
2023-05-02T01:03:53.702Z,101937.00
2023-05-02T01:06:42.461Z,101947.78
2023-05-02T01:09:37.202Z,101937.41
2023-05-02T01:12:09.905Z,101941.63
2023-05-02T01:14:42.963Z,101935.00
2023-05-02T01:17:15.689Z,101940.41
2023-05-02T01:19:49.504Z,101948.69
2023-05-02T01:22:20.085Z,101937.56
2023-05-02T01:25:02.075Z,101952.59
2023-05-02T01:27:39.746Z,101949.44
2023-05-02T01:30:08.372Z,101951.38
2023-05-02T01:32:37.866Z,101955.38
2023-05-02T01:35:07.043Z,101957.00
2023-05-02T01:37:35.352Z,101951.41
2023-05-02T01:40:04.723Z,101948.22
2023-05-02T01:42:34.425Z,101965.03
2023-05-02T01:45:04.543Z,101966.91
2023-05-02T01:47:35.623Z,101976.13
2023-05-02T01:50:05.934Z,101975.03
2023-05-02T01:52:33.607Z,101986.09
2023-05-02T01:55:01.689Z,101989.94
2023-05-02T01:57:28.550Z,101986.84
2023-05-02T01:59:57.578Z,102004.56
2023-05-02T02:02:27.674Z,101995.72
2023-05-02T02:04:56.436Z,102012.06
2023-05-02T02:07:23.743Z,102013.41
2023-05-02T02:09:51.690Z,102013.97
2023-05-02T02:12:24.625Z,102018.81
2023-05-02T02:14:57.655Z,102025.03
2023-05-02T02:17:36.992Z,102036.53
2023-05-02T02:20:07.042Z,102027.97
2023-05-02T02:22:37.414Z,102026.91
2023-05-02T02:25:10.565Z,102032.03
2023-05-02T02:27:41.628Z,102038.47
2023-05-02T02:30:09.826Z,102051.91
2023-05-02T02:32:38.188Z,102046.56
2023-05-02T02:35:05.877Z,102053.50
2023-05-02T02:37:41.272Z,102060.47
2023-05-02T02:40:17.096Z,102059.41
2023-05-02T02:43:05.544Z,102061.78
2023-05-02T02:45:47.341Z,102080.25
2023-05-02T02:49:09.880Z,102083.97
2023-05-02T02:51:46.712Z,102083.16
2023-05-02T02:54:36.457Z,102087.16
2023-05-02T02:57:16.916Z,102094.91
2023-05-02T02:59:54.443Z,102102.88
2023-05-02T03:02:27.597Z,102113.31
2023-05-02T03:04:56.369Z,102121.03
2023-05-02T03:07:23.956Z,102132.28
2023-05-02T03:09:51.257Z,102139.50
2023-05-02T03:12:22.602Z,102137.06
2023-05-02T03:14:50.781Z,102140.81
2023-05-02T03:17:18.106Z,102144.56
2023-05-02T03:19:45.868Z,102146.72
2023-05-02T03:22:12.862Z,102149.41
2023-05-02T03:24:40.066Z,102153.91
2023-05-02T03:27:07.487Z,102154.94
2023-05-02T03:29:40.397Z,102159.41
2023-05-02T03:32:07.573Z,102171.69
2023-05-02T03:34:36.669Z,102175.72
2023-05-02T03:37:03.609Z,102180.78
2023-05-02T03:39:31.367Z,102187.72
2023-05-02T03:41:58.412Z,102184.53
2023-05-02T03:44:25.306Z,102197.88
2023-05-02T03:46:52.496Z,102197.88
2023-05-02T03:49:20.218Z,102208.88
2023-05-02T03:51:49.184Z,102203.81
2023-05-02T03:54:20.896Z,102212.91
2023-05-02T03:56:48.073Z,102211.56
2023-05-02T03:59:29.751Z,102214.75
2023-05-02T04:01:57.690Z,102215.59
2023-05-02T04:04:34.571Z,102220.19
2023-05-02T04:07:01.704Z,102224.91
2023-05-02T04:09:29.384Z,102237.22
2023-05-02T04:12:01.623Z,102244.09
2023-05-02T04:14:28.485Z,102244.78
2023-05-02T04:16:57.204Z,102245.25
2023-05-02T04:19:35.752Z,102255.94
2023-05-02T04:22:03.876Z,102250.59
2023-05-02T04:24:34.638Z,102254.34
2023-05-02T04:27:01.772Z,102271.16
2023-05-02T04:29:28.809Z,102273.34
2023-05-02T04:31:55.876Z,102282.16
2023-05-02T04:34:25.507Z,102285.66
2023-05-02T04:36:52.472Z,102290.25
2023-05-02T04:39:22.341Z,102287.28
2023-05-02T04:42:02.649Z,102292.31
2023-05-02T04:44:33.866Z,102290.44
2023-05-02T04:47:00.772Z,102294.13
2023-05-02T04:49:28.245Z,102286.38
2023-05-02T04:51:55.076Z,102307.00
2023-05-02T04:54:23.844Z,102312.09
2023-05-02T04:56:50.662Z,102315.00
2023-05-02T04:59:17.875Z,102315.31
2023-05-02T05:01:45.825Z,102314.00
2023-05-02T05:04:13.177Z,102326.28
2023-05-02T05:06:40.293Z,102330.56
2023-05-02T05:09:08.100Z,102330.53
2023-05-02T05:11:36.319Z,102334.34
2023-05-02T05:14:04.550Z,102348.25
2023-05-02T05:16:34.969Z,102345.28
2023-05-02T05:19:02.022Z,102349.81
2023-05-02T05:21:29.391Z,102351.97
2023-05-02T05:23:57.734Z,102350.34
2023-05-02T05:26:28.104Z,102351.13
2023-05-02T05:28:55.427Z,102354.06
2023-05-02T05:31:25.431Z,102363.69
2023-05-02T05:33:55.545Z,102374.91
2023-05-02T05:36:23.799Z,102375.97
2023-05-02T05:38:51.564Z,102387.72
2023-05-02T05:41:19.531Z,102385.00
2023-05-02T05:43:50.557Z,102390.66
2023-05-02T05:46:17.783Z,102389.09
2023-05-02T05:48:44.592Z,102389.81
2023-05-02T05:51:11.917Z,102401.91
2023-05-02T05:53:38.913Z,102409.94
2023-05-02T05:56:10.691Z,102408.66
2023-05-02T05:58:40.224Z,102416.66
2023-05-02T06:01:08.544Z,102417.47
2023-05-02T06:03:36.399Z,102409.78
2023-05-02T06:06:03.899Z,102417.00
2023-05-02T06:08:30.838Z,102429.31
2023-05-02T06:10:57.631Z,102427.53
2023-05-02T06:13:24.459Z,102427.25
2023-05-02T06:15:51.455Z,102442.28
2023-05-02T06:18:18.449Z,102435.06
2023-05-02T06:20:45.230Z,102434.09
2023-05-02T06:23:12.036Z,102449.38
2023-05-02T06:25:38.911Z,102447.25
2023-05-02T06:28:06.291Z,102450.81
2023-05-02T06:30:33.167Z,102454.00
2023-05-02T06:33:00.120Z,102459.41
2023-05-02T06:35:27.326Z,102461.84
2023-05-02T06:37:54.133Z,102460.00
2023-05-02T06:40:21.176Z,102466.97
2023-05-02T06:42:48.129Z,102467.50
2023-05-02T06:45:14.917Z,102476.44
2023-05-02T06:47:41.888Z,102476.50
2023-05-02T06:50:09.262Z,102486.13
2023-05-02T06:52:36.086Z,102482.69
2023-05-02T06:55:02.901Z,102490.13
2023-05-02T06:57:29.766Z,102498.97
2023-05-02T06:59:56.599Z,102491.19
2023-05-02T07:02:23.485Z,102503.88
2023-05-02T07:04:50.313Z,102513.63
2023-05-02T07:07:19.032Z,102508.97
2023-05-02T07:09:46.151Z,102508.53
2023-05-02T07:12:12.985Z,102510.47
2023-05-02T07:14:39.908Z,102517.16
2023-05-02T07:17:06.889Z,102523.88
2023-05-02T07:19:33.901Z,102517.44
2023-05-02T07:22:00.724Z,102529.75
2023-05-02T07:24:27.577Z,102541.38
2023-05-02T07:26:54.505Z,102542.81
2023-05-02T07:29:21.294Z,102549.19
2023-05-02T07:31:48.105Z,102549.78
2023-05-02T07:34:14.908Z,102542.75
2023-05-02T07:36:41.728Z,102546.53
2023-05-02T07:39:08.635Z,102551.84
2023-05-02T07:41:35.728Z,102550.41
2023-05-02T07:44:02.581Z,102549.22
2023-05-02T07:46:29.471Z,102559.00
2023-05-02T07:48:56.363Z,102559.81
2023-05-02T07:51:23.171Z,102559.53
2023-05-02T07:53:58.774Z,102563.25
2023-05-02T07:56:26.005Z,102561.34
2023-05-02T07:58:53.078Z,102566.81
2023-05-02T08:01:20.302Z,102567.97
2023-05-02T08:03:48.926Z,102574.91
2023-05-02T08:06:15.956Z,102579.41
2023-05-02T08:08:42.874Z,102579.66
2023-05-02T08:11:09.676Z,102591.34
2023-05-02T08:13:36.656Z,102593.81
2023-05-02T08:16:03.738Z,102590.38
2023-05-02T08:18:30.594Z,102586.38
2023-05-02T08:21:00.202Z,102602.53
2023-05-02T08:23:27.087Z,102601.50
2023-05-02T08:25:54.546Z,102603.16
2023-05-02T08:28:21.365Z,102604.78
2023-05-02T08:30:49.228Z,102602.38
2023-05-02T08:33:16.388Z,102599.97
2023-05-02T08:35:43.339Z,102601.56
2023-05-02T08:38:10.266Z,102598.81
2023-05-02T08:40:42.098Z,102600.63
2023-05-02T08:43:11.932Z,102614.16
2023-05-02T08:45:44.166Z,102610.16
2023-05-02T08:48:13.984Z,102610.69
2023-05-02T08:50:42.751Z,102620.91
2023-05-02T08:53:11.111Z,102611.50
2023-05-02T08:55:43.161Z,102616.88
2023-05-02T08:58:11.444Z,102619.28
2023-05-02T09:00:42.738Z,102612.06
2023-05-02T09:03:34.108Z,102622.25
2023-05-02T09:06:07.527Z,102624.84
2023-05-02T09:08:35.914Z,102634.53
2023-05-02T09:11:06.937Z,102634.25
2023-05-02T09:13:45.056Z,102640.31
2023-05-02T09:16:16.766Z,102642.09
2023-05-02T09:18:43.806Z,102641.53
2023-05-02T09:21:16.698Z,102640.06
2023-05-02T09:23:50.416Z,102647.25
2023-05-02T09:26:31.809Z,102646.78
2023-05-02T09:29:04.872Z,102650.53
2023-05-02T09:34:11.325Z,102653.28
2023-05-02T09:36:56.440Z,102648.53
2023-05-02T09:39:31.204Z,102654.81
2023-05-02T09:41:59.226Z,102652.06
2023-05-02T09:44:27.913Z,102646.00
2023-05-02T09:46:57.640Z,102652.75
2023-05-02T09:49:43.369Z,102661.28
2023-05-02T09:52:18.050Z,102657.41
2023-05-02T09:54:46.992Z,102659.59
2023-05-02T09:57:14.229Z,102669.94
2023-05-02T09:59:41.632Z,102668.94
2023-05-02T10:02:11.777Z,102673.78
2023-05-02T10:04:40.021Z,102682.09
2023-05-02T10:07:10.807Z,102684.50
2023-05-02T10:09:43.320Z,102685.34
2023-05-02T10:12:10.323Z,102691.47
2023-05-02T10:14:41.841Z,102695.53
2023-05-02T10:17:21.701Z,102696.47
2023-05-02T10:20:00.934Z,102709.44
2023-05-02T10:22:28.128Z,102715.19
2023-05-02T10:24:57.838Z,102712.63
2023-05-02T10:27:24.951Z,102711.00
2023-05-02T10:29:53.164Z,102711.56
2023-05-02T10:32:22.778Z,102707.44
2023-05-02T10:34:52.010Z,102712.28
2023-05-02T10:37:20.185Z,102719.06
2023-05-02T10:39:47.039Z,102712.00
2023-05-02T10:42:14.857Z,102719.00
2023-05-02T10:44:42.053Z,102719.00
2023-05-02T10:47:25.542Z,102721.63
2023-05-02T10:49:56.889Z,102726.09
2023-05-02T10:52:34.478Z,102730.66
2023-05-02T10:55:21.732Z,102733.91
2023-05-02T10:58:21.347Z,102729.91
2023-05-02T11:00:48.183Z,102720.41
2023-05-02T11:03:15.228Z,102728.38
2023-05-02T11:06:07.851Z,102736.31
2023-05-02T11:08:34.907Z,102740.22
2023-05-02T11:11:39.969Z,102736.31
2023-05-02T11:14:06.774Z,102734.75
2023-05-02T11:16:59.086Z,102742.28
2023-05-02T11:19:28.558Z,102738.81
2023-05-02T11:22:14.942Z,102743.97
2023-05-02T11:24:44.830Z,102742.56
2023-05-02T11:27:33.886Z,102747.59
2023-05-02T11:30:07.802Z,102739.66
2023-05-02T11:32:46.902Z,102741.97
2023-05-02T11:35:18.796Z,102736.38
2023-05-02T11:38:05.165Z,102732.84
2023-05-02T11:40:32.961Z,102742.34
2023-05-02T11:43:01.176Z,102739.53
2023-05-02T11:45:39.489Z,102747.00
2023-05-02T11:48:07.263Z,102749.81
2023-05-02T11:50:55.483Z,102748.50
2023-05-02T11:53:27.050Z,102748.84
2023-05-02T11:55:59.061Z,102751.03
2023-05-02T11:58:30.137Z,102747.13
2023-05-02T12:00:57.433Z,102754.47
2023-05-02T12:03:28.084Z,102760.53
2023-05-02T12:05:56.017Z,102763.63
2023-05-02T12:08:28.147Z,102754.34
2023-05-02T12:10:56.885Z,102770.09
2023-05-02T12:13:26.431Z,102765.56
2023-05-02T12:15:54.777Z,102775.25
2023-05-02T12:18:24.101Z,102779.84
2023-05-02T12:20:52.645Z,102777.75
2023-05-02T12:23:26.486Z,102778.25
2023-05-02T12:25:53.532Z,102781.56
2023-05-02T12:28:21.238Z,102779.13
2023-05-02T12:30:50.548Z,102786.34
2023-05-02T12:33:18.232Z,102787.50
2023-05-02T12:35:46.935Z,102790.69
2023-05-02T12:38:18.873Z,102793.97
2023-05-02T12:40:51.232Z,102796.13
2023-05-02T12:43:19.066Z,102801.13
2023-05-02T12:45:46.209Z,102796.59
2023-05-02T12:48:28.308Z,102807.09
2023-05-02T12:50:55.571Z,102805.25
2023-05-02T12:53:44.510Z,102805.38
2023-05-02T12:56:12.006Z,102818.75
2023-05-02T12:58:43.656Z,102822.41
2023-05-02T13:01:11.118Z,102834.19
2023-05-02T13:03:38.843Z,102821.31
2023-05-02T13:06:06.206Z,102828.28
2023-05-02T13:08:34.540Z,102824.34
2023-05-02T13:11:04.769Z,102823.13
2023-05-02T13:13:32.839Z,102828.88
2023-05-02T13:15:59.754Z,102814.66
2023-05-02T13:18:28.374Z,102821.44
2023-05-02T13:20:55.628Z,102821.94
2023-05-02T13:23:22.584Z,102828.41
2023-05-02T13:25:49.456Z,102830.59
2023-05-02T13:28:16.722Z,102838.38
2023-05-02T13:30:43.608Z,102837.59
2023-05-02T13:33:10.618Z,102837.63
2023-05-02T13:35:37.577Z,102829.53
2023-05-02T13:38:04.536Z,102833.91
2023-05-02T13:40:31.446Z,102844.34
2023-05-02T13:42:58.414Z,102841.34
2023-05-02T13:45:25.234Z,102841.19
2023-05-02T13:47:52.143Z,102842.56
2023-05-02T13:50:18.957Z,102846.41
2023-05-02T13:52:48.367Z,102845.34
2023-05-02T13:55:16.148Z,102847.88
2023-05-02T13:57:43.152Z,102844.63
2023-05-02T14:00:11.028Z,102835.94
2023-05-02T14:02:39.126Z,102851.16
2023-05-02T14:05:06.617Z,102852.88
2023-05-02T14:07:33.405Z,102846.09
2023-05-02T14:10:00.636Z,102845.28
2023-05-02T14:12:27.949Z,102846.78
2023-05-02T14:14:54.793Z,102840.38
2023-05-02T14:17:21.827Z,102850.19
2023-05-02T14:19:48.755Z,102856.72
2023-05-02T14:22:16.106Z,102857.28
2023-05-02T14:24:43.202Z,102867.56
2023-05-02T14:27:18.130Z,102871.22
2023-05-02T14:29:48.393Z,102859.47
2023-05-02T14:32:15.428Z,102862.53
2023-05-02T14:34:42.241Z,102867.44
2023-05-02T14:37:09.391Z,102862.28
2023-05-02T14:39:37.069Z,102866.06
2023-05-02T14:42:04.688Z,102872.53
2023-05-02T14:44:31.659Z,102869.44
2023-05-02T14:46:58.635Z,102872.16
2023-05-02T14:49:27.176Z,102872.28
2023-05-02T14:51:55.106Z,102869.41
2023-05-02T14:54:27.386Z,102869.19
2023-05-02T14:56:54.284Z,102865.78
2023-05-02T14:59:21.726Z,102869.16
2023-05-02T15:01:48.754Z,102866.16
2023-05-02T15:04:15.609Z,102858.78
2023-05-02T15:06:42.558Z,102868.22
2023-05-02T15:09:09.708Z,102865.97
2023-05-02T15:11:36.618Z,102866.25
2023-05-02T15:14:03.685Z,102869.66
2023-05-02T15:16:30.595Z,102872.34
2023-05-02T15:18:57.450Z,102876.78
2023-05-02T15:21:24.358Z,102869.78
2023-05-02T15:23:51.269Z,102869.44
2023-05-02T15:26:18.277Z,102872.28
2023-05-02T15:28:45.091Z,102877.75
2023-05-02T15:31:11.977Z,102872.63
2023-05-02T15:33:38.874Z,102877.84
2023-05-02T15:36:06.129Z,102876.97
2023-05-02T15:38:34.918Z,102882.56
2023-05-02T15:41:01.780Z,102882.44
2023-05-02T15:43:28.614Z,102886.34
2023-05-02T15:45:57.511Z,102888.13
2023-05-02T15:48:27.940Z,102892.38
2023-05-02T15:50:55.009Z,102897.66
2023-05-02T15:53:23.174Z,102907.50
2023-05-02T15:55:51.395Z,102905.34
2023-05-02T15:58:18.956Z,102898.47
2023-05-02T16:00:47.495Z,102906.34
2023-05-02T16:03:14.609Z,102902.31
2023-05-02T16:05:41.906Z,102900.69
2023-05-02T16:08:08.755Z,102908.47
2023-05-02T16:10:36.760Z,102906.06
2023-05-02T16:13:03.842Z,102908.75
2023-05-02T16:15:30.782Z,102909.69
2023-05-02T16:17:57.817Z,102900.41
2023-05-02T16:20:24.694Z,102902.75
2023-05-02T16:22:51.622Z,102900.09
2023-05-02T16:25:19.067Z,102903.72
2023-05-02T16:27:46.032Z,102910.94
2023-05-02T16:30:13.790Z,102906.16
2023-05-02T16:32:40.923Z,102897.09
2023-05-02T16:35:10.943Z,102900.25
2023-05-02T16:37:37.907Z,102905.69
2023-05-02T16:40:06.253Z,102897.69
2023-05-02T16:42:34.480Z,102902.59
2023-05-02T16:45:01.506Z,102899.88
2023-05-02T16:47:28.796Z,102907.16
2023-05-02T16:49:59.559Z,102917.38
2023-05-02T16:52:27.362Z,102920.88
2023-05-02T16:54:54.368Z,102922.44
2023-05-02T16:57:21.781Z,102917.03
2023-05-02T16:59:50.300Z,102921.34
2023-05-02T17:02:19.097Z,102924.06
2023-05-02T17:04:46.018Z,102923.28
2023-05-02T17:07:12.813Z,102916.81
2023-05-02T17:09:44.493Z,102916.81
2023-05-02T17:12:12.352Z,102918.13
2023-05-02T17:14:41.380Z,102927.03
2023-05-02T17:17:08.909Z,102932.97
2023-05-02T17:19:37.137Z,102924.09
2023-05-02T17:22:05.406Z,102927.31
2023-05-02T17:24:33.327Z,102932.69
2023-05-02T17:27:01.053Z,102939.34
2023-05-02T17:29:27.931Z,102942.56
2023-05-02T17:31:57.456Z,102933.69
2023-05-02T17:34:28.599Z,102940.94
2023-05-02T17:36:56.127Z,102941.19
2023-05-02T17:39:23.486Z,102944.81
2023-05-02T17:41:50.327Z,102951.16
2023-05-02T17:44:17.245Z,102950.31
2023-05-02T17:46:44.313Z,102952.63
2023-05-02T17:49:11.415Z,102944.78
2023-05-02T17:51:38.256Z,102950.59
2023-05-02T17:54:05.186Z,102950.09
2023-05-02T17:56:34.743Z,102956.75
2023-05-02T17:59:01.684Z,102956.94
2023-05-02T18:01:28.625Z,102952.00
2023-05-02T18:03:55.709Z,102958.38
2023-05-02T18:06:22.629Z,102958.09
2023-05-02T18:08:49.509Z,102964.72
2023-05-02T18:11:16.887Z,102970.91
2023-05-02T18:13:44.855Z,102973.94
2023-05-02T18:16:12.610Z,102974.91
2023-05-02T18:18:39.605Z,102968.47
2023-05-02T18:21:06.565Z,102975.66
2023-05-02T18:23:34.020Z,102981.78
2023-05-02T18:26:01.148Z,102980.81
2023-05-02T18:28:27.971Z,102989.31
2023-05-02T18:30:54.975Z,102986.00
2023-05-02T18:33:21.922Z,102985.53
2023-05-02T18:35:49.613Z,102994.44
2023-05-02T18:38:16.940Z,102993.31
2023-05-02T18:40:44.464Z,102990.66
2023-05-02T18:43:11.532Z,102988.41
2023-05-02T18:45:38.438Z,102992.28
2023-05-02T18:48:05.525Z,102989.69
2023-05-02T18:50:32.383Z,102992.28
2023-05-02T18:52:59.230Z,102988.78
2023-05-02T18:55:26.113Z,102992.13
2023-05-02T18:57:52.965Z,102999.75
2023-05-02T19:00:20.605Z,102997.47
2023-05-02T19:02:48.041Z,102994.47
2023-05-02T19:05:15.261Z,102999.63
2023-05-02T19:07:42.561Z,102993.84
2023-05-02T19:10:11.268Z,103003.41
2023-05-02T19:12:38.654Z,102998.78
2023-05-02T19:15:06.912Z,103003.94
2023-05-02T19:17:33.869Z,103011.94
2023-05-02T19:20:00.835Z,103006.75
2023-05-02T19:22:27.980Z,102998.91
2023-05-02T19:24:55.388Z,103000.91
2023-05-02T19:27:22.215Z,103008.22
2023-05-02T19:29:53.299Z,103001.31
2023-05-02T19:32:22.169Z,103006.19
2023-05-02T19:34:48.991Z,102999.81
2023-05-02T19:37:15.778Z,103010.47
2023-05-02T19:39:42.584Z,103010.28
2023-05-02T19:42:09.476Z,103020.69
2023-05-02T19:44:36.346Z,103025.13
2023-05-02T19:47:03.323Z,103026.16
2023-05-02T19:49:30.154Z,103037.63
2023-05-02T19:51:57.003Z,103028.91
2023-05-02T19:54:23.952Z,103040.63
2023-05-02T19:56:50.821Z,103035.84
2023-05-02T19:59:17.972Z,103037.47
2023-05-02T20:01:45.162Z,103024.50
2023-05-02T20:04:12.064Z,103031.81
2023-05-02T20:06:38.998Z,103032.63
2023-05-02T20:09:05.817Z,103037.19
2023-05-02T20:11:33.115Z,103038.38
2023-05-02T20:14:00.504Z,103028.34
2023-05-02T20:16:27.506Z,103032.75
2023-05-02T20:18:54.484Z,103032.56
2023-05-02T20:21:21.304Z,103047.06
2023-05-02T20:23:48.154Z,103044.03
2023-05-02T20:26:17.352Z,103039.13
2023-05-02T20:28:44.616Z,103043.38
2023-05-02T20:31:11.544Z,103039.56
2023-05-02T20:33:45.487Z,103045.66
2023-05-02T20:36:15.120Z,103039.13
2023-05-02T20:38:43.935Z,103049.84
2023-05-02T20:41:14.269Z,103059.72
2023-05-02T20:43:45.079Z,103053.47
2023-05-02T20:46:13.781Z,103053.03
2023-05-02T20:48:40.725Z,103051.34
2023-05-02T20:51:08.834Z,103052.16
2023-05-02T20:53:37.790Z,103052.00
2023-05-02T20:56:05.077Z,103060.81
2023-05-02T20:58:32.387Z,103061.63
2023-05-02T21:00:59.946Z,103067.72
2023-05-02T21:03:28.009Z,103069.03
2023-05-02T21:05:56.563Z,103060.66
2023-05-02T21:08:23.670Z,103064.91
2023-05-02T21:10:51.564Z,103067.56
2023-05-02T21:13:18.485Z,103055.88
2023-05-02T21:15:45.779Z,103068.22
2023-05-02T21:18:12.935Z,103059.13
2023-05-02T21:20:41.663Z,103062.47
2023-05-02T21:23:11.398Z,103068.41
2023-05-02T21:25:38.676Z,103068.44
2023-05-02T21:28:06.251Z,103072.38
2023-05-02T21:30:36.136Z,103072.16
2023-05-02T21:33:03.005Z,103073.56
2023-05-02T21:35:34.197Z,103070.22
2023-05-02T21:38:01.815Z,103083.63
2023-05-02T21:40:31.660Z,103072.75
2023-05-02T21:42:58.537Z,103084.22
2023-05-02T21:45:25.464Z,103079.84
2023-05-02T21:47:52.970Z,103073.94
2023-05-02T21:50:19.991Z,103081.69
2023-05-02T21:52:47.020Z,103077.91
2023-05-02T21:55:13.939Z,103080.88
2023-05-02T21:57:41.380Z,103081.88
2023-05-02T22:00:11.892Z,103071.72
2023-05-02T22:02:38.885Z,103072.75
2023-05-02T22:05:06.091Z,103071.88
2023-05-02T22:07:32.937Z,103070.91
2023-05-02T22:10:00.338Z,103075.22
2023-05-02T22:12:27.400Z,103066.09
2023-05-02T22:14:54.249Z,103067.28
2023-05-02T22:17:22.913Z,103060.31
2023-05-02T22:19:51.927Z,103056.25
2023-05-02T22:22:18.832Z,103063.13
2023-05-02T22:24:45.724Z,103059.34
2023-05-02T22:27:12.622Z,103067.31
2023-05-02T22:29:39.398Z,103074.31
2023-05-02T22:32:06.542Z,103072.97
2023-05-02T22:34:33.513Z,103074.59
2023-05-02T22:37:00.355Z,103079.78
2023-05-02T22:39:27.932Z,103080.50
2023-05-02T22:41:54.810Z,103080.72
2023-05-02T22:44:21.595Z,103079.97
2023-05-02T22:46:48.501Z,103077.78
2023-05-02T22:49:16.003Z,103085.59
2023-05-02T22:51:43.073Z,103083.81
2023-05-02T22:54:10.473Z,103077.50
2023-05-02T22:56:37.385Z,103074.72
2023-05-02T22:59:04.375Z,103082.69
2023-05-02T23:01:31.305Z,103079.00
2023-05-02T23:03:58.234Z,103085.38
2023-05-02T23:06:26.415Z,103089.44
2023-05-02T23:08:53.401Z,103081.94
2023-05-02T23:11:20.349Z,103079.88
2023-05-02T23:13:47.190Z,103088.19
2023-05-02T23:16:14.180Z,103087.78
2023-05-02T23:18:41.179Z,103086.75
2023-05-02T23:21:14.398Z,103077.97
2023-05-02T23:23:42.064Z,103072.97
2023-05-02T23:26:12.108Z,103082.31
2023-05-02T23:28:39.650Z,103076.53
2023-05-02T23:31:07.145Z,103072.78
2023-05-02T23:33:35.704Z,103071.44
2023-05-02T23:36:02.799Z,103068.78
2023-05-02T23:38:29.731Z,103073.78
2023-05-02T23:40:57.126Z,103075.72
2023-05-02T23:43:24.343Z,103069.91
2023-05-02T23:45:51.363Z,103070.44
2023-05-02T23:48:18.152Z,103073.72
2023-05-02T23:50:44.948Z,103081.75
2023-05-02T23:53:11.818Z,103080.44
2023-05-02T23:55:38.645Z,103079.69
2023-05-02T23:58:05.423Z,103085.19
